Terminal Aerodrome Forecast
Issued by NWS Northern Indiana

Home | Current Version | Previous Version | Text Only | Print | Product List | Glossary On
Versions: 1 2 3 4 5 6 7 8 9 10 11 12 13 14 15 16 17
000
FTUS43 KIWX 222300
TAFFWA
TAF
KFWA 222336Z 2300/2324 09010KT 6SM -RA BR OVC060
      TEMPO 2300/2304 5SM -RA BR BKN040
     FM230400 11012KT 3SM -SHRA BR OVC015
     FM231000 14010KT 2SM -RA BR OVC007
     FM231600 20010KT 4SM BR OVC015=

USA.gov is the U.S. government's official web portal to all federal, state and local government web resources and services.